createdAt,value
2023-04-27T00:02:06.910Z,4.83
2023-04-27T00:04:35.725Z,4.89
2023-04-27T00:07:04.195Z,4.91
2023-04-27T00:09:32.899Z,4.93
2023-04-27T00:12:02.511Z,4.98
2023-04-27T00:14:31.248Z,4.99
2023-04-27T00:16:59.864Z,4.96
2023-04-27T00:19:28.559Z,4.90
2023-04-27T00:21:58.029Z,4.90
2023-04-27T00:24:27.572Z,4.90
2023-04-27T00:26:56.572Z,4.88
2023-04-27T00:29:26.476Z,4.91
2023-04-27T00:31:55.128Z,5.00
2023-04-27T00:34:24.370Z,5.07
2023-04-27T00:36:53.107Z,5.03
2023-04-27T00:39:22.311Z,5.00
2023-04-27T00:41:51.177Z,4.95
2023-04-27T00:44:26.273Z,4.80
2023-04-27T00:46:55.670Z,4.58
2023-04-27T00:49:27.362Z,4.44
2023-04-27T00:51:56.789Z,4.39
2023-04-27T00:54:26.122Z,4.44
2023-04-27T00:56:55.523Z,4.48
2023-04-27T00:59:24.214Z,4.53
2023-04-27T01:01:55.931Z,4.56
2023-04-27T01:04:26.451Z,4.58
2023-04-27T01:06:55.664Z,4.58
2023-04-27T01:09:24.767Z,4.56
2023-04-27T01:11:53.419Z,4.55
2023-04-27T01:14:22.488Z,4.47
2023-04-27T01:16:54.790Z,4.45
2023-04-27T01:19:24.009Z,4.39
2023-04-27T01:21:52.660Z,4.28
2023-04-27T01:24:22.546Z,4.30
2023-04-27T01:26:53.262Z,4.31
2023-04-27T01:29:22.432Z,4.35
2023-04-27T01:31:51.052Z,4.29
2023-04-27T01:34:19.806Z,4.19
2023-04-27T01:36:49.751Z,4.21
2023-04-27T01:39:18.089Z,4.19
2023-04-27T01:41:47.703Z,4.15
2023-04-27T01:44:16.533Z,4.27
2023-04-27T01:46:46.645Z,4.32
2023-04-27T01:49:16.007Z,4.27
2023-04-27T01:51:44.927Z,4.17
2023-04-27T01:54:13.238Z,4.17
2023-04-27T01:56:42.122Z,4.18
2023-04-27T01:59:12.109Z,4.15
2023-04-27T02:01:41.022Z,4.13
2023-04-27T02:04:10.347Z,4.05
2023-04-27T02:06:39.049Z,4.00
2023-04-27T02:09:08.412Z,3.97
2023-04-27T02:11:37.031Z,3.85
2023-04-27T02:14:05.612Z,3.77
2023-04-27T02:16:35.669Z,3.70
2023-04-27T02:19:04.402Z,3.51
2023-04-27T02:21:33.078Z,3.46
2023-04-27T02:24:01.921Z,3.47
2023-04-27T02:26:30.850Z,3.51
2023-04-27T02:28:59.636Z,3.57
2023-04-27T02:31:28.659Z,3.45
2023-04-27T02:34:01.528Z,3.40
2023-04-27T02:36:30.195Z,3.34
2023-04-27T02:38:58.952Z,3.30
2023-04-27T02:41:28.669Z,3.18
2023-04-27T02:43:58.618Z,2.94
2023-04-27T02:46:28.096Z,2.85
2023-04-27T02:48:58.662Z,2.65
2023-04-27T02:51:27.733Z,2.54
2023-04-27T02:53:56.605Z,2.47
2023-04-27T02:56:25.462Z,2.42
2023-04-27T02:58:54.298Z,2.37
2023-04-27T03:01:23.020Z,2.34
2023-04-27T03:03:51.842Z,2.27
2023-04-27T03:06:21.927Z,2.23
2023-04-27T03:08:50.306Z,2.12
2023-04-27T03:11:18.966Z,2.05
2023-04-27T03:13:47.663Z,1.87
2023-04-27T03:16:16.385Z,1.83
2023-04-27T03:18:44.679Z,1.83
2023-04-27T03:21:14.507Z,1.82
2023-04-27T03:23:44.593Z,1.92
2023-04-27T03:26:14.745Z,1.97
2023-04-27T03:28:43.478Z,1.90
2023-04-27T03:31:16.207Z,1.81
2023-04-27T03:33:44.911Z,1.71
2023-04-27T03:36:13.566Z,1.56
2023-04-27T03:38:44.746Z,1.42
2023-04-27T03:41:13.778Z,1.39
2023-04-27T03:43:43.301Z,1.34
2023-04-27T03:46:11.969Z,1.38
2023-04-27T03:48:41.112Z,1.60
2023-04-27T03:51:10.654Z,1.79
2023-04-27T03:53:39.755Z,1.79
2023-04-27T03:56:10.864Z,1.69
2023-04-27T03:58:39.511Z,1.78
2023-04-27T04:01:21.944Z,1.98
2023-04-27T04:03:51.814Z,2.07
2023-04-27T04:06:20.855Z,2.14
2023-04-27T04:08:49.702Z,2.17
2023-04-27T04:11:20.156Z,2.20
2023-04-27T04:13:48.895Z,2.12
2023-04-27T04:16:17.984Z,2.17
2023-04-27T04:18:46.627Z,2.10
2023-04-27T04:21:15.507Z,2.16
2023-04-27T04:23:44.545Z,2.26
2023-04-27T04:26:14.974Z,2.29
2023-04-27T04:28:45.683Z,2.38
2023-04-27T04:31:17.105Z,2.51
2023-04-27T04:33:46.403Z,2.49
2023-04-27T04:36:17.038Z,2.51
2023-04-27T04:38:45.800Z,2.72
2023-04-27T04:41:14.417Z,2.79
2023-04-27T04:43:44.656Z,2.83
2023-04-27T04:46:13.018Z,2.97
2023-04-27T04:48:41.800Z,3.17
2023-04-27T04:51:10.458Z,3.29
2023-04-27T04:53:39.204Z,3.45
2023-04-27T04:56:11.823Z,3.74
2023-04-27T04:58:40.941Z,3.83
2023-04-27T05:01:11.013Z,3.92
2023-04-27T05:03:39.864Z,3.83
2023-04-27T05:06:08.945Z,3.83
2023-04-27T05:08:38.790Z,3.89
2023-04-27T05:11:07.236Z,3.85
2023-04-27T05:13:36.515Z,4.02
2023-04-27T05:16:06.661Z,4.16
2023-04-27T05:18:37.049Z,4.40
2023-04-27T05:21:06.077Z,4.45
2023-04-27T05:23:34.954Z,4.61
2023-04-27T05:26:11.853Z,4.62
2023-04-27T05:28:40.501Z,4.73
2023-04-27T05:31:09.261Z,4.83
2023-04-27T05:33:39.303Z,4.99
2023-04-27T05:36:08.361Z,5.23
2023-04-27T05:38:40.095Z,5.41
2023-04-27T05:41:08.945Z,5.61
2023-04-27T05:43:38.697Z,5.65
2023-04-27T05:46:07.746Z,5.94
2023-04-27T05:48:38.275Z,6.05
2023-04-27T05:51:07.203Z,6.11
2023-04-27T05:53:36.295Z,6.12
2023-04-27T05:56:06.843Z,6.26
2023-04-27T05:58:35.513Z,6.43
2023-04-27T06:01:04.391Z,6.63
2023-04-27T06:03:33.226Z,6.81
2023-04-27T06:06:03.256Z,6.83
2023-04-27T06:08:31.907Z,6.85
2023-04-27T06:11:00.625Z,6.91
2023-04-27T06:13:29.313Z,7.08
2023-04-27T06:15:57.986Z,7.08
2023-04-27T06:18:26.692Z,7.26
2023-04-27T06:21:00.061Z,7.39
2023-04-27T06:23:30.194Z,7.66
2023-04-27T06:25:58.900Z,7.69
2023-04-27T06:28:27.347Z,7.69
2023-04-27T06:30:56.274Z,7.77
2023-04-27T06:33:24.903Z,7.87
2023-04-27T06:35:53.599Z,7.99
2023-04-27T06:38:22.288Z,7.93
2023-04-27T06:40:57.066Z,7.83
2023-04-27T06:43:25.894Z,7.92
2023-04-27T06:45:54.602Z,8.04
2023-04-27T06:48:23.397Z,8.19
2023-04-27T06:50:52.137Z,8.25
2023-04-27T06:53:21.080Z,8.30
2023-04-27T06:55:51.075Z,8.29
2023-04-27T06:58:20.673Z,8.39
2023-04-27T07:00:49.314Z,8.29
2023-04-27T07:03:18.466Z,8.40
2023-04-27T07:05:47.297Z,8.11
2023-04-27T07:08:16.555Z,8.35
2023-04-27T07:10:45.123Z,8.54
2023-04-27T07:13:14.487Z,8.58
2023-04-27T07:15:44.518Z,8.61
2023-04-27T07:18:13.271Z,8.81
2023-04-27T07:20:42.809Z,8.72
2023-04-27T07:23:11.421Z,8.86
2023-04-27T07:25:40.444Z,8.77
2023-04-27T07:28:09.108Z,8.91
2023-04-27T07:30:38.393Z,9.16
2023-04-27T07:33:08.110Z,9.12
2023-04-27T07:35:37.157Z,8.94
2023-04-27T07:38:05.528Z,9.06
2023-04-27T07:40:34.560Z,9.25
2023-04-27T07:43:04.173Z,9.25
2023-04-27T07:45:33.385Z,9.34
2023-04-27T07:48:02.978Z,9.56
2023-04-27T07:50:33.430Z,9.67
2023-04-27T07:53:02.157Z,9.38
2023-04-27T07:55:31.268Z,9.62
2023-04-27T07:58:00.090Z,9.75
2023-04-27T08:00:29.017Z,9.95
2023-04-27T08:02:57.861Z,10.21
2023-04-27T08:05:27.266Z,9.91
2023-04-27T08:07:57.497Z,9.72
2023-04-27T08:10:26.501Z,9.71
2023-04-27T08:12:55.256Z,10.01
2023-04-27T08:15:23.937Z,10.25
2023-04-27T08:17:52.987Z,10.44
2023-04-27T08:20:21.613Z,10.34
2023-04-27T08:22:53.064Z,10.20
2023-04-27T08:25:23.204Z,10.25
2023-04-27T08:27:52.046Z,10.05
2023-04-27T08:30:21.350Z,10.09
2023-04-27T08:32:50.090Z,10.21
2023-04-27T08:35:19.003Z,10.27
2023-04-27T08:37:47.329Z,10.28
2023-04-27T08:40:16.394Z,10.40
2023-04-27T08:42:57.258Z,10.74
2023-04-27T08:45:27.545Z,10.89
2023-04-27T08:47:57.102Z,11.01
2023-04-27T08:50:25.868Z,10.74
2023-04-27T08:52:54.984Z,11.20
2023-04-27T08:55:24.272Z,11.36
2023-04-27T08:57:58.869Z,12.00
2023-04-27T09:00:28.295Z,12.00
2023-04-27T09:02:57.106Z,12.12
2023-04-27T09:05:25.954Z,12.43
2023-04-27T09:08:04.961Z,12.42
2023-04-27T09:10:46.283Z,12.82
2023-04-27T09:13:16.016Z,13.32
2023-04-27T09:15:48.287Z,13.43
2023-04-27T09:18:19.590Z,13.75
2023-04-27T09:20:49.894Z,14.25
2023-04-27T09:23:28.917Z,14.70
2023-04-27T09:25:58.482Z,13.69
2023-04-27T09:28:30.878Z,14.01
2023-04-27T09:31:00.974Z,14.64
2023-04-27T09:33:31.683Z,15.26
2023-04-27T09:36:02.457Z,15.62
2023-04-27T09:38:31.710Z,16.08
2023-04-27T09:41:01.242Z,16.49
2023-04-27T09:43:33.109Z,16.75
2023-04-27T09:46:02.050Z,18.32
2023-04-27T09:48:30.798Z,18.42
2023-04-27T09:50:59.536Z,18.21
2023-04-27T09:53:37.527Z,18.98
2023-04-27T09:56:28.499Z,18.32
2023-04-27T09:59:23.320Z,18.12
2023-04-27T10:01:56.659Z,18.74
2023-04-27T10:04:54.103Z,19.96
2023-04-27T10:07:23.829Z,19.10
2023-04-27T10:09:53.080Z,19.59
2023-04-27T10:12:24.188Z,20.05
2023-04-27T10:14:56.721Z,19.89
2023-04-27T10:17:33.295Z,19.37
2023-04-27T10:20:04.426Z,19.74
2023-04-27T10:22:41.161Z,20.14
2023-04-27T10:25:20.220Z,20.08
2023-04-27T10:27:53.446Z,19.41
2023-04-27T10:30:26.104Z,20.54
2023-04-27T10:32:56.869Z,19.75
2023-04-27T10:35:36.270Z,19.96
2023-04-27T10:38:09.701Z,20.27
2023-04-27T10:40:38.967Z,19.61
2023-04-27T10:43:12.253Z,19.40
2023-04-27T10:45:42.820Z,17.92
2023-04-27T10:48:14.426Z,17.89
2023-04-27T10:50:44.790Z,18.61
2023-04-27T10:53:14.392Z,20.12
2023-04-27T10:55:43.161Z,19.14
2023-04-27T10:58:11.698Z,20.29
2023-04-27T11:00:44.560Z,20.49
2023-04-27T11:03:17.447Z,20.66
2023-04-27T11:05:48.023Z,20.65
2023-04-27T11:08:18.338Z,20.85
2023-04-27T11:10:50.016Z,19.86
2023-04-27T11:13:23.765Z,19.26
2023-04-27T11:15:55.490Z,18.89
2023-04-27T11:18:29.255Z,19.82
2023-04-27T11:21:11.419Z,21.06
2023-04-27T11:23:41.248Z,20.45
2023-04-27T11:26:14.719Z,19.65
2023-04-27T11:28:44.155Z,20.58
2023-04-27T11:31:14.009Z,21.27
2023-04-27T11:33:49.996Z,21.69
2023-04-27T11:36:19.191Z,21.85
2023-04-27T11:38:48.165Z,19.16
2023-04-27T11:41:17.669Z,20.48
2023-04-27T11:43:49.488Z,20.34
2023-04-27T11:46:23.004Z,21.27
2023-04-27T11:48:51.577Z,21.95
2023-04-27T11:51:20.454Z,21.29
2023-04-27T11:53:51.631Z,22.05
2023-04-27T11:56:20.344Z,21.21
2023-04-27T11:58:48.971Z,22.75
2023-04-27T12:01:24.853Z,22.55
2023-04-27T12:04:05.282Z,21.43
2023-04-27T12:06:34.057Z,21.24
2023-04-27T12:09:04.259Z,20.63
2023-04-27T12:11:32.787Z,21.60
2023-04-27T12:14:03.330Z,22.08
2023-04-27T12:16:32.064Z,21.36
2023-04-27T12:19:00.377Z,20.08
2023-04-27T12:21:30.410Z,20.82
2023-04-27T12:23:58.774Z,21.23
2023-04-27T12:26:27.371Z,21.59
2023-04-27T12:28:56.164Z,20.51
2023-04-27T12:31:27.848Z,20.55
2023-04-27T12:33:57.082Z,20.40
2023-04-27T12:36:27.378Z,19.71
2023-04-27T12:39:01.756Z,21.24
2023-04-27T12:41:30.736Z,21.70
2023-04-27T12:43:58.989Z,22.29
2023-04-27T12:46:29.761Z,21.07
2023-04-27T12:48:58.221Z,19.21
2023-04-27T12:51:28.411Z,20.25
2023-04-27T12:54:00.764Z,21.30
2023-04-27T12:56:29.913Z,22.05
2023-04-27T12:58:58.544Z,21.76
2023-04-27T13:01:28.580Z,22.96
2023-04-27T13:04:01.840Z,21.79
2023-04-27T13:06:31.955Z,21.34
2023-04-27T13:09:02.583Z,21.23
2023-04-27T13:11:31.237Z,20.11
2023-04-27T13:14:00.334Z,20.33
2023-04-27T13:16:28.716Z,21.22
2023-04-27T13:18:57.552Z,20.35
2023-04-27T13:21:26.687Z,20.60
2023-04-27T13:23:58.866Z,20.19
2023-04-27T13:26:30.090Z,20.25
2023-04-27T13:28:59.050Z,19.76
2023-04-27T13:31:27.860Z,20.34
2023-04-27T13:33:57.190Z,20.75
2023-04-27T13:36:25.952Z,20.71
2023-04-27T13:38:55.026Z,19.93
2023-04-27T13:41:23.858Z,20.20
2023-04-27T13:43:53.833Z,19.91
2023-04-27T13:46:22.558Z,20.12
2023-04-27T13:48:51.273Z,19.64
2023-04-27T13:51:20.088Z,19.43
2023-04-27T13:53:48.751Z,19.67
2023-04-27T13:56:17.386Z,19.64
2023-04-27T13:58:46.449Z,19.56
2023-04-27T14:01:17.127Z,19.65
2023-04-27T14:03:45.931Z,19.01
2023-04-27T14:06:16.223Z,19.67
2023-04-27T14:08:44.810Z,19.99
2023-04-27T14:11:14.077Z,19.93
2023-04-27T14:13:42.748Z,19.54
2023-04-27T14:16:11.433Z,20.33
2023-04-27T14:18:42.098Z,19.49
2023-04-27T14:21:11.035Z,19.32
2023-04-27T14:23:39.304Z,19.05
2023-04-27T14:26:07.942Z,19.43
2023-04-27T14:28:36.846Z,19.44
2023-04-27T14:31:05.509Z,20.21
2023-04-27T14:33:33.758Z,20.07
2023-04-27T14:36:03.542Z,19.77
2023-04-27T14:38:32.536Z,19.72
2023-04-27T14:41:03.757Z,19.01
2023-04-27T14:43:32.043Z,18.47
2023-04-27T14:46:19.291Z,18.22
2023-04-27T14:48:49.717Z,17.62
2023-04-27T14:51:19.703Z,18.08
2023-04-27T14:53:48.303Z,18.53
2023-04-27T14:56:16.987Z,18.58
2023-04-27T14:58:45.684Z,19.00
2023-04-27T15:01:14.331Z,19.32
2023-04-27T15:03:43.141Z,18.91
2023-04-27T15:06:11.996Z,19.50
2023-04-27T15:08:41.975Z,19.65
2023-04-27T15:11:10.855Z,19.39
2023-04-27T15:13:39.584Z,19.87
2023-04-27T15:16:08.685Z,19.02
2023-04-27T15:18:37.014Z,19.48
2023-04-27T15:21:05.780Z,18.69
2023-04-27T15:23:35.003Z,18.30
2023-04-27T15:26:05.654Z,18.99
2023-04-27T15:28:34.627Z,18.98
2023-04-27T15:31:03.756Z,19.09
2023-04-27T15:33:32.432Z,19.09
2023-04-27T15:36:01.095Z,18.73
2023-04-27T15:38:29.757Z,18.34
2023-04-27T15:40:58.670Z,18.03
2023-04-27T15:43:29.361Z,18.12
2023-04-27T15:45:57.681Z,18.07
2023-04-27T15:48:27.017Z,18.61
2023-04-27T15:50:55.615Z,19.52
2023-04-27T15:53:23.930Z,19.65
2023-04-27T15:55:52.202Z,19.46
2023-04-27T15:58:21.448Z,19.72
2023-04-27T16:00:51.469Z,19.46
2023-04-27T16:03:20.306Z,19.11
2023-04-27T16:05:52.389Z,19.77
2023-04-27T16:08:21.042Z,19.07
2023-04-27T16:10:50.132Z,19.43
2023-04-27T16:13:18.693Z,18.85
2023-04-27T16:15:47.329Z,18.90
2023-04-27T16:18:17.497Z,19.19
2023-04-27T16:20:46.184Z,18.90
2023-04-27T16:23:14.807Z,19.12
2023-04-27T16:25:43.464Z,18.55
2023-04-27T16:28:12.133Z,18.59
2023-04-27T16:30:40.711Z,18.16
2023-04-27T16:33:09.658Z,18.14
2023-04-27T16:35:39.767Z,17.66
2023-04-27T16:38:08.734Z,17.34
2023-04-27T16:40:37.355Z,17.01
2023-04-27T16:43:06.428Z,16.86
2023-04-27T16:45:35.119Z,16.91
2023-04-27T16:48:03.828Z,16.34
2023-04-27T16:50:33.426Z,16.44
2023-04-27T16:53:13.479Z,15.64
2023-04-27T16:55:42.343Z,15.65
2023-04-27T16:58:11.484Z,15.86
2023-04-27T17:00:40.584Z,16.04
2023-04-27T17:03:09.913Z,15.96
2023-04-27T17:05:38.675Z,15.65
2023-04-27T17:08:08.901Z,15.36
2023-04-27T17:10:37.653Z,15.10
2023-04-27T17:13:10.659Z,15.07
2023-04-27T17:15:39.381Z,15.25
2023-04-27T17:18:08.255Z,15.45
2023-04-27T17:20:38.374Z,14.92
2023-04-27T17:23:09.356Z,14.64
2023-04-27T17:25:38.066Z,14.35
2023-04-27T17:28:06.651Z,14.38
2023-04-27T17:30:35.504Z,14.22
2023-04-27T17:33:06.362Z,14.18
2023-04-27T17:35:35.008Z,14.21
2023-04-27T17:38:03.707Z,13.81
2023-04-27T17:40:34.336Z,13.67
2023-04-27T17:43:03.102Z,13.63
2023-04-27T17:45:32.034Z,13.52
2023-04-27T17:48:00.471Z,13.47
2023-04-27T17:50:30.612Z,13.53
2023-04-27T17:52:59.738Z,13.45
2023-04-27T17:55:28.570Z,13.19
2023-04-27T17:57:58.730Z,12.87
2023-04-27T18:00:27.165Z,12.46
2023-04-27T18:02:56.067Z,12.19
2023-04-27T18:05:24.933Z,11.84
2023-04-27T18:07:53.824Z,11.63
2023-04-27T18:10:22.941Z,11.35
2023-04-27T18:12:51.570Z,11.21
2023-04-27T18:15:23.687Z,11.11
2023-04-27T18:17:55.000Z,11.03
2023-04-27T18:20:24.780Z,10.90
2023-04-27T18:22:54.644Z,10.88
2023-04-27T18:25:23.775Z,10.92
2023-04-27T18:27:55.405Z,10.80
2023-04-27T18:30:25.861Z,10.59
2023-04-27T18:32:54.619Z,10.39
2023-04-27T18:35:23.441Z,10.31
2023-04-27T18:37:52.036Z,10.16
2023-04-27T18:40:23.227Z,9.95
2023-04-27T18:42:51.612Z,9.87
2023-04-27T18:45:20.340Z,9.93
2023-04-27T18:47:50.540Z,9.86
2023-04-27T18:50:19.342Z,9.68
2023-04-27T18:52:48.056Z,9.44
2023-04-27T18:55:17.685Z,9.14
2023-04-27T18:57:46.706Z,9.01
2023-04-27T19:00:16.758Z,8.81
2023-04-27T19:02:45.526Z,8.70
2023-04-27T19:05:16.527Z,8.70
2023-04-27T19:07:45.159Z,8.77
2023-04-27T19:10:14.354Z,8.83
2023-04-27T19:12:43.075Z,8.82
2023-04-27T19:15:13.890Z,8.70
2023-04-27T19:17:42.710Z,8.66
2023-04-27T19:20:11.958Z,8.58
2023-04-27T19:22:41.966Z,8.60
2023-04-27T19:25:10.989Z,8.70
2023-04-27T19:27:39.728Z,8.59
2023-04-27T19:30:10.168Z,8.48
2023-04-27T19:32:38.837Z,8.54
2023-04-27T19:35:12.485Z,8.52
2023-04-27T19:37:42.158Z,8.35
2023-04-27T19:40:12.046Z,8.38
2023-04-27T19:42:40.639Z,8.43
2023-04-27T19:45:10.758Z,8.53
2023-04-27T19:47:39.448Z,8.55
2023-04-27T19:50:09.435Z,8.36
2023-04-27T19:52:37.870Z,8.14
2023-04-27T19:55:08.695Z,8.06
2023-04-27T19:57:37.427Z,8.10
2023-04-27T20:00:10.131Z,7.97
2023-04-27T20:02:44.747Z,7.82
2023-04-27T20:05:13.888Z,7.86
2023-04-27T20:07:42.802Z,7.85
2023-04-27T20:10:12.538Z,7.71
2023-04-27T20:12:55.154Z,7.64
2023-04-27T20:15:24.584Z,7.65
2023-04-27T20:17:53.571Z,7.55
2023-04-27T20:20:22.849Z,7.53
2023-04-27T20:22:51.504Z,7.66
2023-04-27T20:25:21.601Z,7.72
2023-04-27T20:27:51.397Z,7.70
2023-04-27T20:30:20.179Z,7.68
2023-04-27T20:32:48.811Z,7.67
2023-04-27T20:35:17.480Z,7.60
2023-04-27T20:37:46.052Z,7.52
2023-04-27T20:40:17.938Z,7.45
2023-04-27T20:42:49.833Z,7.38
2023-04-27T20:45:18.836Z,7.36
2023-04-27T20:47:47.468Z,7.34
2023-04-27T20:50:16.705Z,7.32
2023-04-27T20:52:46.895Z,7.37
2023-04-27T20:55:15.482Z,7.35
2023-04-27T20:57:44.049Z,7.34
2023-04-27T21:00:15.706Z,7.35
2023-04-27T21:02:44.438Z,7.36
2023-04-27T21:05:14.491Z,7.19
2023-04-27T21:07:43.140Z,7.15
2023-04-27T21:10:12.781Z,7.09
2023-04-27T21:12:41.413Z,7.05
2023-04-27T21:15:11.002Z,7.02
2023-04-27T21:17:41.754Z,6.92
2023-04-27T21:20:11.767Z,6.92
2023-04-27T21:22:40.888Z,6.98
2023-04-27T21:25:09.745Z,6.90
2023-04-27T21:27:38.407Z,6.88
2023-04-27T21:30:08.776Z,6.85
2023-04-27T21:32:37.457Z,6.94
2023-04-27T21:35:08.610Z,6.98
2023-04-27T21:37:37.437Z,7.08
2023-04-27T21:40:08.067Z,7.14
2023-04-27T21:42:36.713Z,7.12
2023-04-27T21:45:05.953Z,7.07
2023-04-27T21:47:34.539Z,7.02
2023-04-27T21:50:03.274Z,7.02
2023-04-27T21:52:33.273Z,7.08
2023-04-27T21:55:01.918Z,7.06
2023-04-27T21:57:32.479Z,6.97
2023-04-27T22:00:01.703Z,6.97
2023-04-27T22:02:30.849Z,6.91
2023-04-27T22:05:00.427Z,6.88
2023-04-27T22:07:29.210Z,6.82
2023-04-27T22:09:59.195Z,6.83
2023-04-27T22:12:27.857Z,6.82
2023-04-27T22:14:56.431Z,6.95
2023-04-27T22:17:25.132Z,7.03
2023-04-27T22:19:53.829Z,7.08
2023-04-27T22:22:22.123Z,7.04
2023-04-27T22:24:51.113Z,7.00
2023-04-27T22:27:20.838Z,6.93
2023-04-27T22:29:52.286Z,6.90
2023-04-27T22:32:20.714Z,6.96
2023-04-27T22:34:49.427Z,6.97
2023-04-27T22:37:18.273Z,6.98
2023-04-27T22:39:46.903Z,6.97
2023-04-27T22:42:15.558Z,6.87
2023-04-27T22:44:45.640Z,6.87
2023-04-27T22:47:14.353Z,6.92
2023-04-27T22:49:43.294Z,6.96
2023-04-27T22:52:11.923Z,7.05
2023-04-27T22:54:40.664Z,7.02
2023-04-27T22:57:09.460Z,7.04
2023-04-27T22:59:37.730Z,7.06
2023-04-27T23:02:07.679Z,7.04
2023-04-27T23:04:36.348Z,7.08
2023-04-27T23:07:05.662Z,7.20
2023-04-27T23:09:34.550Z,7.23
2023-04-27T23:12:03.212Z,7.23
2023-04-27T23:14:33.430Z,7.30
2023-04-27T23:17:02.381Z,7.37
2023-04-27T23:19:32.479Z,7.44
2023-04-27T23:22:02.010Z,7.51
2023-04-27T23:24:30.670Z,7.48
2023-04-27T23:26:59.331Z,7.51
2023-04-27T23:29:27.886Z,7.56
2023-04-27T23:31:56.624Z,7.58
2023-04-27T23:34:25.287Z,7.54
2023-04-27T23:36:55.228Z,7.45
2023-04-27T23:39:23.907Z,7.44
2023-04-27T23:41:52.591Z,7.43
2023-04-27T23:44:21.463Z,7.35
2023-04-27T23:46:49.732Z,7.32
2023-04-27T23:49:17.992Z,7.27
2023-04-27T23:51:46.599Z,7.20
2023-04-27T23:54:16.536Z,7.17
2023-04-27T23:56:45.277Z,7.14
2023-04-27T23:59:15.042Z,7.19
